sensor_id;sensor_type;location;lat;lon;timestamp;P1;durP1;ratioP1;P2;durP2;ratioP2
67776;SDS011;54576;52.020;5.536;2023-03-01T00:01:35;14.73;;;5.35;;
67776;SDS011;54576;52.020;5.536;2023-03-01T00:04:02;10.10;;;6.07;;
67776;SDS011;54576;52.020;5.536;2023-03-01T00:06:28;9.85;;;6.15;;
67776;SDS011;54576;52.020;5.536;2023-03-01T00:08:53;14.50;;;6.35;;
67776;SDS011;54576;52.020;5.536;2023-03-01T00:13:54;13.80;;;6.88;;
67776;SDS011;54576;52.020;5.536;2023-03-01T00:16:22;11.57;;;6.90;;
67776;SDS011;54576;52.020;5.536;2023-03-01T00:18:53;16.55;;;7.40;;
67776;SDS011;54576;52.020;5.536;2023-03-01T00:21:20;14.80;;;7.13;;
67776;SDS011;54576;52.020;5.536;2023-03-01T00:23:47;18.25;;;7.38;;
67776;SDS011;54576;52.020;5.536;2023-03-01T00:26:16;13.25;;;7.25;;
67776;SDS011;54576;52.020;5.536;2023-03-01T00:28:43;14.80;;;7.28;;
67776;SDS011;54576;52.020;5.536;2023-03-01T00:31:10;17.58;;;7.80;;
67776;SDS011;54576;52.020;5.536;2023-03-01T00:33:38;22.42;;;8.48;;
67776;SDS011;54576;52.020;5.536;2023-03-01T00:36:04;24.50;;;10.45;;
67776;SDS011;54576;52.020;5.536;2023-03-01T00:38:34;22.70;;;8.73;;
67776;SDS011;54576;52.020;5.536;2023-03-01T00:41:07;18.07;;;8.77;;
67776;SDS011;54576;52.020;5.536;2023-03-01T00:43:38;18.13;;;7.50;;
67776;SDS011;54576;52.020;5.536;2023-03-01T00:46:04;14.33;;;7.77;;
67776;SDS011;54576;52.020;5.536;2023-03-01T00:48:37;12.13;;;7.05;;
67776;SDS011;54576;52.020;5.536;2023-03-01T00:51:09;11.30;;;6.75;;
67776;SDS011;54576;52.020;5.536;2023-03-01T00:53:38;20.90;;;8.27;;
67776;SDS011;54576;52.020;5.536;2023-03-01T00:56:04;14.23;;;7.32;;
67776;SDS011;54576;52.020;5.536;2023-03-01T01:01:07;16.65;;;7.65;;
67776;SDS011;54576;52.020;5.536;2023-03-01T01:03:41;18.70;;;8.17;;
67776;SDS011;54576;52.020;5.536;2023-03-01T01:06:13;17.33;;;8.90;;
67776;SDS011;54576;52.020;5.536;2023-03-01T01:08:43;11.53;;;7.50;;
67776;SDS011;54576;52.020;5.536;2023-03-01T01:11:13;15.15;;;8.30;;
67776;SDS011;54576;52.020;5.536;2023-03-01T01:13:39;9.77;;;6.60;;
67776;SDS011;54576;52.020;5.536;2023-03-01T01:16:05;14.10;;;6.13;;
67776;SDS011;54576;52.020;5.536;2023-03-01T01:18:31;9.77;;;7.50;;
67776;SDS011;54576;52.020;5.536;2023-03-01T01:20:57;12.45;;;7.00;;
67776;SDS011;54576;52.020;5.536;2023-03-01T01:23:22;10.73;;;7.23;;
67776;SDS011;54576;52.020;5.536;2023-03-01T01:25:48;10.20;;;6.97;;
67776;SDS011;54576;52.020;5.536;2023-03-01T01:28:13;12.63;;;7.23;;
67776;SDS011;54576;52.020;5.536;2023-03-01T01:30:39;16.57;;;8.33;;
67776;SDS011;54576;52.020;5.536;2023-03-01T01:33:04;18.10;;;9.60;;
67776;SDS011;54576;52.020;5.536;2023-03-01T01:35:30;14.60;;;9.07;;
67776;SDS011;54576;52.020;5.536;2023-03-01T01:37:56;14.03;;;8.80;;
67776;SDS011;54576;52.020;5.536;2023-03-01T01:40:21;19.80;;;8.43;;
67776;SDS011;54576;52.020;5.536;2023-03-01T01:42:47;9.07;;;6.83;;
67776;SDS011;54576;52.020;5.536;2023-03-01T01:47:59;13.60;;;7.60;;
67776;SDS011;54576;52.020;5.536;2023-03-01T01:50:29;10.57;;;6.87;;
67776;SDS011;54576;52.020;5.536;2023-03-01T01:53:02;13.03;;;6.47;;
67776;SDS011;54576;52.020;5.536;2023-03-01T01:55:31;11.15;;;7.28;;
67776;SDS011;54576;52.020;5.536;2023-03-01T01:57:58;9.97;;;6.97;;
67776;SDS011;54576;52.020;5.536;2023-03-01T02:00:28;10.77;;;6.67;;
67776;SDS011;54576;52.020;5.536;2023-03-01T02:02:56;16.73;;;7.60;;
67776;SDS011;54576;52.020;5.536;2023-03-01T02:05:34;10.43;;;6.57;;
67776;SDS011;54576;52.020;5.536;2023-03-01T02:08:02;10.90;;;7.03;;
67776;SDS011;54576;52.020;5.536;2023-03-01T02:10:28;9.57;;;6.13;;
67776;SDS011;54576;52.020;5.536;2023-03-01T02:12:58;10.27;;;6.70;;
67776;SDS011;54576;52.020;5.536;2023-03-01T02:15:24;9.40;;;6.47;;
67776;SDS011;54576;52.020;5.536;2023-03-01T02:17:51;15.00;;;7.17;;
67776;SDS011;54576;52.020;5.536;2023-03-01T02:22:52;14.00;;;6.97;;
67776;SDS011;54576;52.020;5.536;2023-03-01T02:25:22;13.13;;;7.13;;
67776;SDS011;54576;52.020;5.536;2023-03-01T02:30:41;10.57;;;7.70;;
67776;SDS011;54576;52.020;5.536;2023-03-01T02:33:31;13.20;;;7.50;;
67776;SDS011;54576;52.020;5.536;2023-03-01T02:36:01;12.13;;;7.23;;
67776;SDS011;54576;52.020;5.536;2023-03-01T02:38:29;19.42;;;7.78;;
67776;SDS011;54576;52.020;5.536;2023-03-01T02:40:56;13.23;;;7.40;;
67776;SDS011;54576;52.020;5.536;2023-03-01T02:43:25;13.23;;;7.53;;
67776;SDS011;54576;52.020;5.536;2023-03-01T02:45:57;12.47;;;7.17;;
67776;SDS011;54576;52.020;5.536;2023-03-01T02:48:27;17.10;;;7.07;;
67776;SDS011;54576;52.020;5.536;2023-03-01T02:50:57;13.13;;;7.93;;
67776;SDS011;54576;52.020;5.536;2023-03-01T02:56:03;10.67;;;7.87;;
67776;SDS011;54576;52.020;5.536;2023-03-01T02:58:29;8.73;;;6.93;;
67776;SDS011;54576;52.020;5.536;2023-03-01T03:00:55;14.23;;;7.80;;
67776;SDS011;54576;52.020;5.536;2023-03-01T03:03:21;15.60;;;7.73;;
67776;SDS011;54576;52.020;5.536;2023-03-01T03:05:47;13.63;;;6.83;;
67776;SDS011;54576;52.020;5.536;2023-03-01T03:08:13;17.67;;;7.63;;
67776;SDS011;54576;52.020;5.536;2023-03-01T03:10:41;14.40;;;8.17;;
67776;SDS011;54576;52.020;5.536;2023-03-01T03:13:11;13.37;;;7.23;;
67776;SDS011;54576;52.020;5.536;2023-03-01T03:15:39;10.60;;;6.90;;
67776;SDS011;54576;52.020;5.536;2023-03-01T03:18:06;13.27;;;7.23;;
67776;SDS011;54576;52.020;5.536;2023-03-01T03:20:34;15.65;;;6.47;;
67776;SDS011;54576;52.020;5.536;2023-03-01T03:23:01;11.20;;;6.73;;
67776;SDS011;54576;52.020;5.536;2023-03-01T03:25:27;9.60;;;6.73;;
67776;SDS011;54576;52.020;5.536;2023-03-01T03:27:54;11.40;;;7.03;;
67776;SDS011;54576;52.020;5.536;2023-03-01T03:30:24;10.27;;;6.87;;
67776;SDS011;54576;52.020;5.536;2023-03-01T03:32:52;13.20;;;6.93;;
67776;SDS011;54576;52.020;5.536;2023-03-01T03:35:25;12.30;;;6.80;;
67776;SDS011;54576;52.020;5.536;2023-03-01T03:37:55;14.27;;;6.37;;
67776;SDS011;54576;52.020;5.536;2023-03-01T03:43:03;9.43;;;6.53;;
67776;SDS011;54576;52.020;5.536;2023-03-01T03:45:29;10.17;;;6.37;;
67776;SDS011;54576;52.020;5.536;2023-03-01T03:47:58;12.20;;;7.87;;
67776;SDS011;54576;52.020;5.536;2023-03-01T03:50:26;11.90;;;6.80;;
67776;SDS011;54576;52.020;5.536;2023-03-01T03:52:52;8.77;;;6.03;;
67776;SDS011;54576;52.020;5.536;2023-03-01T03:55:17;11.53;;;6.80;;
67776;SDS011;54576;52.020;5.536;2023-03-01T03:57:44;15.97;;;7.07;;
67776;SDS011;54576;52.020;5.536;2023-03-01T04:00:16;17.50;;;7.70;;
67776;SDS011;54576;52.020;5.536;2023-03-01T04:02:45;17.52;;;9.07;;
67776;SDS011;54576;52.020;5.536;2023-03-01T04:05:12;30.23;;;16.10;;
67776;SDS011;54576;52.020;5.536;2023-03-01T04:07:42;43.27;;;19.40;;
67776;SDS011;54576;52.020;5.536;2023-03-01T04:10:12;31.30;;;17.00;;
67776;SDS011;54576;52.020;5.536;2023-03-01T04:12:39;22.03;;;10.80;;
67776;SDS011;54576;52.020;5.536;2023-03-01T04:15:06;13.90;;;8.40;;
67776;SDS011;54576;52.020;5.536;2023-03-01T04:17:39;13.90;;;8.20;;
67776;SDS011;54576;52.020;5.536;2023-03-01T04:20:05;13.37;;;8.37;;
67776;SDS011;54576;52.020;5.536;2023-03-01T04:22:31;12.20;;;7.70;;
67776;SDS011;54576;52.020;5.536;2023-03-01T04:24:58;9.97;;;7.10;;
67776;SDS011;54576;52.020;5.536;2023-03-01T04:27:26;13.37;;;7.20;;
67776;SDS011;54576;52.020;5.536;2023-03-01T04:29:52;12.07;;;6.63;;
67776;SDS011;54576;52.020;5.536;2023-03-01T04:32:18;10.67;;;6.53;;
67776;SDS011;54576;52.020;5.536;2023-03-01T04:34:43;8.00;;;6.20;;
67776;SDS011;54576;52.020;5.536;2023-03-01T04:37:09;13.90;;;6.07;;
67776;SDS011;54576;52.020;5.536;2023-03-01T04:39:34;11.10;;;6.57;;
67776;SDS011;54576;52.020;5.536;2023-03-01T04:42:10;12.80;;;6.57;;
67776;SDS011;54576;52.020;5.536;2023-03-01T04:44:36;9.40;;;6.57;;
67776;SDS011;54576;52.020;5.536;2023-03-01T04:47:01;12.70;;;6.83;;
67776;SDS011;54576;52.020;5.536;2023-03-01T04:49:27;12.07;;;6.77;;
67776;SDS011;54576;52.020;5.536;2023-03-01T04:51:53;8.30;;;6.10;;
67776;SDS011;54576;52.020;5.536;2023-03-01T04:54:18;7.37;;;5.60;;
67776;SDS011;54576;52.020;5.536;2023-03-01T04:56:44;10.27;;;6.07;;
67776;SDS011;54576;52.020;5.536;2023-03-01T04:59:10;13.93;;;6.77;;
67776;SDS011;54576;52.020;5.536;2023-03-01T05:01:37;10.07;;;6.13;;
67776;SDS011;54576;52.020;5.536;2023-03-01T05:04:03;11.07;;;6.73;;
67776;SDS011;54576;52.020;5.536;2023-03-01T05:06:30;8.67;;;6.30;;
67776;SDS011;54576;52.020;5.536;2023-03-01T05:08:56;10.10;;;6.67;;
67776;SDS011;54576;52.020;5.536;2023-03-01T05:11:22;14.33;;;6.43;;
67776;SDS011;54576;52.020;5.536;2023-03-01T05:13:48;10.73;;;6.83;;
67776;SDS011;54576;52.020;5.536;2023-03-01T05:16:19;12.67;;;6.50;;
67776;SDS011;54576;52.020;5.536;2023-03-01T05:18:45;9.63;;;6.87;;
67776;SDS011;54576;52.020;5.536;2023-03-01T05:21:12;10.63;;;6.67;;
67776;SDS011;54576;52.020;5.536;2023-03-01T05:23:40;12.33;;;6.77;;
67776;SDS011;54576;52.020;5.536;2023-03-01T05:26:07;13.70;;;7.77;;
67776;SDS011;54576;52.020;5.536;2023-03-01T05:28:33;12.83;;;7.87;;
67776;SDS011;54576;52.020;5.536;2023-03-01T05:30:58;16.47;;;7.70;;
67776;SDS011;54576;52.020;5.536;2023-03-01T05:33:24;14.43;;;7.70;;
67776;SDS011;54576;52.020;5.536;2023-03-01T05:35:51;9.53;;;6.73;;
67776;SDS011;54576;52.020;5.536;2023-03-01T05:38:18;10.53;;;7.03;;
67776;SDS011;54576;52.020;5.536;2023-03-01T05:40:46;10.77;;;7.40;;
67776;SDS011;54576;52.020;5.536;2023-03-01T05:43:13;16.77;;;6.57;;
67776;SDS011;54576;52.020;5.536;2023-03-01T05:45:41;12.37;;;6.80;;
67776;SDS011;54576;52.020;5.536;2023-03-01T05:48:09;12.13;;;6.37;;
67776;SDS011;54576;52.020;5.536;2023-03-01T05:50:37;10.83;;;6.37;;
67776;SDS011;54576;52.020;5.536;2023-03-01T05:53:05;10.10;;;6.47;;
67776;SDS011;54576;52.020;5.536;2023-03-01T05:55:34;12.50;;;7.00;;
67776;SDS011;54576;52.020;5.536;2023-03-01T05:58:01;9.80;;;6.87;;
67776;SDS011;54576;52.020;5.536;2023-03-01T06:00:28;21.10;;;6.47;;
67776;SDS011;54576;52.020;5.536;2023-03-01T06:02:55;9.63;;;5.93;;
67776;SDS011;54576;52.020;5.536;2023-03-01T06:05:22;10.43;;;6.30;;
67776;SDS011;54576;52.020;5.536;2023-03-01T06:07:48;7.93;;;6.10;;
67776;SDS011;54576;52.020;5.536;2023-03-01T06:10:18;12.70;;;7.70;;
67776;SDS011;54576;52.020;5.536;2023-03-01T06:12:44;12.30;;;7.00;;
67776;SDS011;54576;52.020;5.536;2023-03-01T06:15:11;11.87;;;7.37;;
67776;SDS011;54576;52.020;5.536;2023-03-01T06:17:40;11.67;;;6.97;;
67776;SDS011;54576;52.020;5.536;2023-03-01T06:20:08;10.07;;;6.87;;
67776;SDS011;54576;52.020;5.536;2023-03-01T06:22:40;14.17;;;8.27;;
67776;SDS011;54576;52.020;5.536;2023-03-01T06:25:06;30.77;;;12.80;;
67776;SDS011;54576;52.020;5.536;2023-03-01T06:27:33;16.40;;;8.40;;
67776;SDS011;54576;52.020;5.536;2023-03-01T06:29:59;12.43;;;7.77;;
67776;SDS011;54576;52.020;5.536;2023-03-01T06:32:24;10.13;;;7.17;;
67776;SDS011;54576;52.020;5.536;2023-03-01T06:34:50;8.83;;;6.77;;
67776;SDS011;54576;52.020;5.536;2023-03-01T06:37:16;11.43;;;7.00;;
67776;SDS011;54576;52.020;5.536;2023-03-01T06:39:41;11.67;;;6.83;;
67776;SDS011;54576;52.020;5.536;2023-03-01T06:42:07;15.10;;;6.90;;
67776;SDS011;54576;52.020;5.536;2023-03-01T06:44:35;11.30;;;6.70;;
67776;SDS011;54576;52.020;5.536;2023-03-01T06:47:00;10.60;;;6.97;;
67776;SDS011;54576;52.020;5.536;2023-03-01T06:49:26;17.57;;;6.97;;
67776;SDS011;54576;52.020;5.536;2023-03-01T06:51:52;14.07;;;7.80;;
67776;SDS011;54576;52.020;5.536;2023-03-01T06:54:17;8.67;;;6.57;;
67776;SDS011;54576;52.020;5.536;2023-03-01T06:56:46;18.50;;;6.73;;
67776;SDS011;54576;52.020;5.536;2023-03-01T06:59:12;12.15;;;7.47;;
67776;SDS011;54576;52.020;5.536;2023-03-01T07:01:37;10.50;;;6.00;;
67776;SDS011;54576;52.020;5.536;2023-03-01T07:04:03;9.10;;;6.70;;
67776;SDS011;54576;52.020;5.536;2023-03-01T07:06:29;10.77;;;5.93;;
67776;SDS011;54576;52.020;5.536;2023-03-01T07:08:55;17.07;;;7.37;;
67776;SDS011;54576;52.020;5.536;2023-03-01T07:11:20;9.70;;;6.57;;
67776;SDS011;54576;52.020;5.536;2023-03-01T07:13:46;10.50;;;7.10;;
67776;SDS011;54576;52.020;5.536;2023-03-01T07:16:11;12.67;;;6.67;;
67776;SDS011;54576;52.020;5.536;2023-03-01T07:18:37;15.13;;;6.90;;
67776;SDS011;54576;52.020;5.536;2023-03-01T07:21:06;15.03;;;7.23;;
67776;SDS011;54576;52.020;5.536;2023-03-01T07:23:37;16.83;;;8.13;;
67776;SDS011;54576;52.020;5.536;2023-03-01T07:26:02;14.90;;;8.40;;
67776;SDS011;54576;52.020;5.536;2023-03-01T07:28:28;15.43;;;6.40;;
67776;SDS011;54576;52.020;5.536;2023-03-01T07:30:55;14.57;;;8.03;;
67776;SDS011;54576;52.020;5.536;2023-03-01T07:33:25;12.67;;;7.47;;
67776;SDS011;54576;52.020;5.536;2023-03-01T07:35:55;18.57;;;7.93;;
67776;SDS011;54576;52.020;5.536;2023-03-01T07:38:24;15.77;;;8.30;;
67776;SDS011;54576;52.020;5.536;2023-03-01T07:40:50;18.63;;;8.37;;
67776;SDS011;54576;52.020;5.536;2023-03-01T07:43:16;12.67;;;8.63;;
67776;SDS011;54576;52.020;5.536;2023-03-01T07:45:41;15.80;;;8.30;;
67776;SDS011;54576;52.020;5.536;2023-03-01T07:48:07;16.27;;;8.77;;
67776;SDS011;54576;52.020;5.536;2023-03-01T07:50:32;15.53;;;9.23;;
67776;SDS011;54576;52.020;5.536;2023-03-01T07:52:58;15.43;;;7.93;;
67776;SDS011;54576;52.020;5.536;2023-03-01T07:55:23;12.97;;;8.17;;
67776;SDS011;54576;52.020;5.536;2023-03-01T07:57:49;14.00;;;8.33;;
67776;SDS011;54576;52.020;5.536;2023-03-01T08:00:14;19.17;;;9.03;;
67776;SDS011;54576;52.020;5.536;2023-03-01T08:02:40;16.27;;;9.10;;
67776;SDS011;54576;52.020;5.536;2023-03-01T08:05:07;12.23;;;8.68;;
67776;SDS011;54576;52.020;5.536;2023-03-01T08:07:34;13.40;;;7.83;;
67776;SDS011;54576;52.020;5.536;2023-03-01T08:09:59;15.70;;;8.65;;
67776;SDS011;54576;52.020;5.536;2023-03-01T08:12:25;22.23;;;8.93;;
67776;SDS011;54576;52.020;5.536;2023-03-01T08:14:52;15.20;;;8.23;;
67776;SDS011;54576;52.020;5.536;2023-03-01T08:17:18;19.48;;;9.18;;
67776;SDS011;54576;52.020;5.536;2023-03-01T08:19:43;18.40;;;8.43;;
67776;SDS011;54576;52.020;5.536;2023-03-01T08:22:09;14.45;;;8.23;;
67776;SDS011;54576;52.020;5.536;2023-03-01T08:24:35;16.92;;;9.20;;
67776;SDS011;54576;52.020;5.536;2023-03-01T08:27:00;17.55;;;9.00;;
67776;SDS011;54576;52.020;5.536;2023-03-01T08:29:27;15.43;;;8.93;;
67776;SDS011;54576;52.020;5.536;2023-03-01T08:31:55;15.82;;;8.68;;
67776;SDS011;54576;52.020;5.536;2023-03-01T08:34:20;19.80;;;8.68;;
67776;SDS011;54576;52.020;5.536;2023-03-01T08:36:46;15.10;;;8.50;;
67776;SDS011;54576;52.020;5.536;2023-03-01T08:39:13;16.23;;;8.98;;
67776;SDS011;54576;52.020;5.536;2023-03-01T08:41:41;17.40;;;8.25;;
67776;SDS011;54576;52.020;5.536;2023-03-01T08:44:07;16.50;;;8.90;;
67776;SDS011;54576;52.020;5.536;2023-03-01T08:46:38;15.80;;;8.88;;
67776;SDS011;54576;52.020;5.536;2023-03-01T08:49:09;13.90;;;8.13;;
67776;SDS011;54576;52.020;5.536;2023-03-01T08:51:38;18.38;;;7.63;;
67776;SDS011;54576;52.020;5.536;2023-03-01T08:54:04;15.32;;;8.52;;
67776;SDS011;54576;52.020;5.536;2023-03-01T08:56:31;13.95;;;7.55;;
67776;SDS011;54576;52.020;5.536;2023-03-01T08:58:58;16.60;;;7.55;;
67776;SDS011;54576;52.020;5.536;2023-03-01T09:01:23;16.65;;;7.57;;
67776;SDS011;54576;52.020;5.536;2023-03-01T09:03:49;8.98;;;6.85;;
67776;SDS011;54576;52.020;5.536;2023-03-01T09:06:15;9.30;;;6.82;;
67776;SDS011;54576;52.020;5.536;2023-03-01T09:08:42;13.90;;;6.40;;
67776;SDS011;54576;52.020;5.536;2023-03-01T09:11:13;13.30;;;6.15;;
67776;SDS011;54576;52.020;5.536;2023-03-01T09:13:41;12.40;;;5.40;;
67776;SDS011;54576;52.020;5.536;2023-03-01T09:16:07;9.32;;;5.20;;
67776;SDS011;54576;52.020;5.536;2023-03-01T09:18:33;12.52;;;5.22;;
67776;SDS011;54576;52.020;5.536;2023-03-01T09:21:04;11.30;;;5.40;;
67776;SDS011;54576;52.020;5.536;2023-03-01T09:23:36;9.65;;;5.97;;
67776;SDS011;54576;52.020;5.536;2023-03-01T09:26:04;13.27;;;5.50;;
67776;SDS011;54576;52.020;5.536;2023-03-01T09:28:34;18.58;;;5.20;;
67776;SDS011;54576;52.020;5.536;2023-03-01T09:31:01;7.78;;;4.35;;
67776;SDS011;54576;52.020;5.536;2023-03-01T09:33:27;7.15;;;4.07;;
67776;SDS011;54576;52.020;5.536;2023-03-01T09:35:57;5.65;;;3.65;;
67776;SDS011;54576;52.020;5.536;2023-03-01T09:40:49;5.57;;;3.42;;
67776;SDS011;54576;52.020;5.536;2023-03-01T09:43:17;4.90;;;3.05;;
67776;SDS011;54576;52.020;5.536;2023-03-01T09:46:18;13.30;;;2.90;;
67776;SDS011;54576;52.020;5.536;2023-03-01T09:48:57;5.35;;;3.25;;
67776;SDS011;54576;52.020;5.536;2023-03-01T09:51:29;4.57;;;3.30;;
67776;SDS011;54576;52.020;5.536;2023-03-01T09:53:57;5.85;;;3.33;;
67776;SDS011;54576;52.020;5.536;2023-03-01T09:56:30;11.32;;;3.78;;
67776;SDS011;54576;52.020;5.536;2023-03-01T09:58:59;10.38;;;4.07;;
67776;SDS011;54576;52.020;5.536;2023-03-01T10:01:57;5.35;;;3.70;;
67776;SDS011;54576;52.020;5.536;2023-03-01T10:04:49;5.88;;;4.03;;
67776;SDS011;54576;52.020;5.536;2023-03-01T10:15:41;4.88;;;3.65;;
67776;SDS011;54576;52.020;5.536;2023-03-01T10:18:14;4.15;;;3.33;;
67776;SDS011;54576;52.020;5.536;2023-03-01T10:20:50;12.35;;;4.05;;
67776;SDS011;54576;52.020;5.536;2023-03-01T10:23:22;5.32;;;3.13;;
67776;SDS011;54576;52.020;5.536;2023-03-01T10:28:44;8.10;;;3.33;;
67776;SDS011;54576;52.020;5.536;2023-03-01T10:31:22;7.05;;;3.05;;
67776;SDS011;54576;52.020;5.536;2023-03-01T10:33:54;3.75;;;2.55;;
67776;SDS011;54576;52.020;5.536;2023-03-01T10:36:22;3.20;;;2.45;;
67776;SDS011;54576;52.020;5.536;2023-03-01T10:38:52;10.13;;;3.70;;
67776;SDS011;54576;52.020;5.536;2023-03-01T10:41:20;8.80;;;3.75;;
67776;SDS011;54576;52.020;5.536;2023-03-01T10:43:51;9.82;;;3.30;;
67776;SDS011;54576;52.020;5.536;2023-03-01T10:49:06;6.28;;;2.38;;
67776;SDS011;54576;52.020;5.536;2023-03-01T10:51:34;4.13;;;2.58;;
67776;SDS011;54576;52.020;5.536;2023-03-01T10:54:00;4.50;;;3.00;;
67776;SDS011;54576;52.020;5.536;2023-03-01T10:56:28;4.47;;;2.70;;
67776;SDS011;54576;52.020;5.536;2023-03-01T10:59:19;3.38;;;2.72;;
67776;SDS011;54576;52.020;5.536;2023-03-01T11:02:02;3.15;;;2.50;;
67776;SDS011;54576;52.020;5.536;2023-03-01T11:04:33;6.13;;;3.42;;
67776;SDS011;54576;52.020;5.536;2023-03-01T11:07:00;4.75;;;2.85;;
67776;SDS011;54576;52.020;5.536;2023-03-01T11:09:29;4.78;;;3.30;;
67776;SDS011;54576;52.020;5.536;2023-03-01T11:12:03;8.38;;;3.22;;
67776;SDS011;54576;52.020;5.536;2023-03-01T11:14:35;6.70;;;2.92;;
67776;SDS011;54576;52.020;5.536;2023-03-01T11:17:04;3.45;;;2.50;;
67776;SDS011;54576;52.020;5.536;2023-03-01T11:19:39;3.97;;;2.88;;
67776;SDS011;54576;52.020;5.536;2023-03-01T11:22:07;4.75;;;3.25;;
67776;SDS011;54576;52.020;5.536;2023-03-01T11:27:04;9.05;;;3.60;;
67776;SDS011;54576;52.020;5.536;2023-03-01T11:29:54;4.47;;;3.15;;
67776;SDS011;54576;52.020;5.536;2023-03-01T11:32:35;6.00;;;3.33;;
67776;SDS011;54576;52.020;5.536;2023-03-01T11:35:27;6.50;;;3.10;;
67776;SDS011;54576;52.020;5.536;2023-03-01T11:38:02;5.30;;;3.20;;
67776;SDS011;54576;52.020;5.536;2023-03-01T11:46:28;5.53;;;3.30;;
67776;SDS011;54576;52.020;5.536;2023-03-01T11:49:40;5.50;;;3.17;;
67776;SDS011;54576;52.020;5.536;2023-03-01T12:10:52;3.92;;;2.83;;
67776;SDS011;54576;52.020;5.536;2023-03-01T12:16:37;3.95;;;3.15;;
67776;SDS011;54576;52.020;5.536;2023-03-01T12:49:26;4.65;;;3.55;;
67776;SDS011;54576;52.020;5.536;2023-03-01T12:54:43;4.13;;;2.83;;
67776;SDS011;54576;52.020;5.536;2023-03-01T12:57:18;12.00;;;5.72;;
67776;SDS011;54576;52.020;5.536;2023-03-01T13:02:53;6.90;;;3.22;;
67776;SDS011;54576;52.020;5.536;2023-03-01T13:08:36;3.75;;;3.20;;
67776;SDS011;54576;52.020;5.536;2023-03-01T13:11:23;7.35;;;3.20;;
67776;SDS011;54576;52.020;5.536;2023-03-01T13:13:49;8.70;;;4.00;;
67776;SDS011;54576;52.020;5.536;2023-03-01T13:21:40;5.43;;;3.60;;
67776;SDS011;54576;52.020;5.536;2023-03-01T13:29:43;3.58;;;3.03;;
67776;SDS011;54576;52.020;5.536;2023-03-01T13:32:25;4.00;;;3.00;;
67776;SDS011;54576;52.020;5.536;2023-03-01T13:37:27;3.88;;;2.65;;
67776;SDS011;54576;52.020;5.536;2023-03-01T13:39:58;11.02;;;3.60;;
67776;SDS011;54576;52.020;5.536;2023-03-01T13:45:16;6.70;;;3.10;;
67776;SDS011;54576;52.020;5.536;2023-03-01T13:47:59;6.85;;;3.60;;
67776;SDS011;54576;52.020;5.536;2023-03-01T13:50:37;4.80;;;2.92;;
67776;SDS011;54576;52.020;5.536;2023-03-01T13:53:11;5.35;;;3.28;;
67776;SDS011;54576;52.020;5.536;2023-03-01T13:55:43;3.88;;;2.95;;
67776;SDS011;54576;52.020;5.536;2023-03-01T13:58:30;3.55;;;2.80;;
67776;SDS011;54576;52.020;5.536;2023-03-01T14:03:25;5.88;;;3.30;;
67776;SDS011;54576;52.020;5.536;2023-03-01T14:08:38;4.15;;;2.78;;
67776;SDS011;54576;52.020;5.536;2023-03-01T14:11:20;3.90;;;3.15;;
67776;SDS011;54576;52.020;5.536;2023-03-01T14:19:46;10.00;;;3.55;;
67776;SDS011;54576;52.020;5.536;2023-03-01T14:24:44;7.78;;;3.20;;
67776;SDS011;54576;52.020;5.536;2023-03-01T14:27:14;4.20;;;3.00;;
67776;SDS011;54576;52.020;5.536;2023-03-01T14:29:40;5.10;;;3.03;;
67776;SDS011;54576;52.020;5.536;2023-03-01T14:34:35;4.40;;;2.90;;
67776;SDS011;54576;52.020;5.536;2023-03-01T14:39:45;7.65;;;3.97;;
67776;SDS011;54576;52.020;5.536;2023-03-01T14:42:11;8.38;;;3.67;;
67776;SDS011;54576;52.020;5.536;2023-03-01T14:44:40;5.15;;;3.40;;
67776;SDS011;54576;52.020;5.536;2023-03-01T14:47:14;7.05;;;3.33;;
67776;SDS011;54576;52.020;5.536;2023-03-01T14:49:44;8.48;;;3.45;;
67776;SDS011;54576;52.020;5.536;2023-03-01T14:52:18;9.65;;;3.53;;
67776;SDS011;54576;52.020;5.536;2023-03-01T14:54:48;5.82;;;3.03;;
67776;SDS011;54576;52.020;5.536;2023-03-01T14:57:21;4.40;;;3.05;;
67776;SDS011;54576;52.020;5.536;2023-03-01T14:59:51;3.33;;;3.00;;
67776;SDS011;54576;52.020;5.536;2023-03-01T15:02:19;4.65;;;3.20;;
67776;SDS011;54576;52.020;5.536;2023-03-01T15:04:49;5.30;;;3.37;;
67776;SDS011;54576;52.020;5.536;2023-03-01T15:09:43;5.80;;;2.45;;
67776;SDS011;54576;52.020;5.536;2023-03-01T15:14:53;9.68;;;2.78;;
67776;SDS011;54576;52.020;5.536;2023-03-01T15:17:30;6.38;;;3.15;;
67776;SDS011;54576;52.020;5.536;2023-03-01T15:20:01;4.63;;;3.10;;
67776;SDS011;54576;52.020;5.536;2023-03-01T15:22:42;6.32;;;2.85;;
67776;SDS011;54576;52.020;5.536;2023-03-01T15:25:20;3.90;;;3.00;;
67776;SDS011;54576;52.020;5.536;2023-03-01T15:27:48;5.18;;;3.15;;
67776;SDS011;54576;52.020;5.536;2023-03-01T15:30:17;7.32;;;2.78;;
67776;SDS011;54576;52.020;5.536;2023-03-01T15:32:46;4.82;;;3.10;;
67776;SDS011;54576;52.020;5.536;2023-03-01T15:38:23;6.07;;;3.00;;
67776;SDS011;54576;52.020;5.536;2023-03-01T15:40:50;4.85;;;2.78;;
67776;SDS011;54576;52.020;5.536;2023-03-01T15:46:05;6.65;;;3.00;;
67776;SDS011;54576;52.020;5.536;2023-03-01T15:48:43;6.75;;;3.03;;
67776;SDS011;54576;52.020;5.536;2023-03-01T15:51:10;4.43;;;3.00;;
67776;SDS011;54576;52.020;5.536;2023-03-01T15:53:39;5.28;;;2.92;;
67776;SDS011;54576;52.020;5.536;2023-03-01T15:56:05;3.22;;;2.90;;
67776;SDS011;54576;52.020;5.536;2023-03-01T15:58:33;4.40;;;2.92;;
67776;SDS011;54576;52.020;5.536;2023-03-01T16:00:58;9.68;;;3.17;;
67776;SDS011;54576;52.020;5.536;2023-03-01T16:03:24;6.88;;;2.83;;
67776;SDS011;54576;52.020;5.536;2023-03-01T16:05:49;7.28;;;2.92;;
67776;SDS011;54576;52.020;5.536;2023-03-01T16:08:16;2.97;;;2.58;;
67776;SDS011;54576;52.020;5.536;2023-03-01T16:10:43;8.52;;;3.65;;
67776;SDS011;54576;52.020;5.536;2023-03-01T16:13:09;10.43;;;2.80;;
67776;SDS011;54576;52.020;5.536;2023-03-01T16:15:36;7.50;;;3.10;;
67776;SDS011;54576;52.020;5.536;2023-03-01T16:18:02;11.73;;;3.90;;
67776;SDS011;54576;52.020;5.536;2023-03-01T16:20:30;10.85;;;3.38;;
67776;SDS011;54576;52.020;5.536;2023-03-01T16:23:04;11.73;;;3.70;;
67776;SDS011;54576;52.020;5.536;2023-03-01T16:25:31;6.38;;;3.60;;
67776;SDS011;54576;52.020;5.536;2023-03-01T16:27:57;7.38;;;4.07;;
67776;SDS011;54576;52.020;5.536;2023-03-01T16:30:25;7.40;;;4.03;;
67776;SDS011;54576;52.020;5.536;2023-03-01T16:32:51;10.05;;;3.60;;
67776;SDS011;54576;52.020;5.536;2023-03-01T16:35:19;9.00;;;4.30;;
67776;SDS011;54576;52.020;5.536;2023-03-01T16:37:46;11.65;;;5.25;;
67776;SDS011;54576;52.020;5.536;2023-03-01T16:40:32;10.05;;;5.22;;
67776;SDS011;54576;52.020;5.536;2023-03-01T16:42:58;8.40;;;4.60;;
67776;SDS011;54576;52.020;5.536;2023-03-01T16:45:27;6.00;;;4.15;;
67776;SDS011;54576;52.020;5.536;2023-03-01T16:47:57;6.35;;;3.75;;
67776;SDS011;54576;52.020;5.536;2023-03-01T16:50:23;4.90;;;3.80;;
67776;SDS011;54576;52.020;5.536;2023-03-01T16:52:49;6.75;;;3.90;;
67776;SDS011;54576;52.020;5.536;2023-03-01T16:55:15;10.73;;;4.10;;
67776;SDS011;54576;52.020;5.536;2023-03-01T16:57:40;7.45;;;4.55;;
67776;SDS011;54576;52.020;5.536;2023-03-01T17:00:06;8.00;;;3.70;;
67776;SDS011;54576;52.020;5.536;2023-03-01T17:02:37;10.75;;;3.88;;
67776;SDS011;54576;52.020;5.536;2023-03-01T17:05:04;11.25;;;4.22;;
67776;SDS011;54576;52.020;5.536;2023-03-01T17:07:30;7.82;;;3.50;;
67776;SDS011;54576;52.020;5.536;2023-03-01T17:09:58;5.32;;;3.65;;
67776;SDS011;54576;52.020;5.536;2023-03-01T17:12:24;6.32;;;3.95;;
67776;SDS011;54576;52.020;5.536;2023-03-01T17:14:50;5.05;;;3.50;;
67776;SDS011;54576;52.020;5.536;2023-03-01T17:17:15;8.07;;;3.67;;
67776;SDS011;54576;52.020;5.536;2023-03-01T17:19:41;10.02;;;4.20;;
67776;SDS011;54576;52.020;5.536;2023-03-01T17:22:08;4.63;;;3.65;;